createdAt,value
2022-12-27T00:00:43.602Z,985.72
2022-12-27T00:01:43.448Z,985.67
2022-12-27T00:02:43.427Z,985.64
2022-12-27T00:03:43.370Z,985.75
2022-12-27T00:04:43.360Z,985.69
2022-12-27T00:05:43.368Z,985.78
2022-12-27T00:06:43.331Z,985.86
2022-12-27T00:07:43.315Z,985.81
2022-12-27T00:08:43.309Z,985.80
2022-12-27T00:09:43.309Z,985.89
2022-12-27T00:10:43.292Z,985.87
2022-12-27T00:11:43.279Z,985.93
2022-12-27T00:12:43.252Z,985.98
2022-12-27T00:13:43.264Z,986.01
2022-12-27T00:14:43.228Z,985.96
2022-12-27T00:15:43.219Z,986.16
2022-12-27T00:16:43.261Z,986.09
2022-12-27T00:17:43.184Z,986.03
2022-12-27T00:18:43.181Z,986.05
2022-12-27T00:19:43.164Z,986.06
2022-12-27T00:20:43.150Z,986.02
2022-12-27T00:21:43.154Z,986.03
2022-12-27T00:22:43.123Z,986.12
2022-12-27T00:23:43.122Z,986.07
2022-12-27T00:24:43.099Z,986.07
2022-12-27T00:25:43.077Z,986.14
2022-12-27T00:26:43.066Z,986.12
2022-12-27T00:27:43.060Z,986.15
2022-12-27T00:28:43.048Z,986.15
2022-12-27T00:29:43.028Z,986.19
2022-12-27T00:30:43.015Z,986.20
2022-12-27T00:31:43.083Z,986.25
2022-12-27T00:32:42.996Z,986.17
2022-12-27T00:33:42.983Z,986.25
2022-12-27T00:34:42.974Z,986.24
2022-12-27T00:35:42.951Z,986.25
2022-12-27T00:36:43.023Z,986.19
2022-12-27T00:37:43.049Z,986.29
2022-12-27T00:38:42.932Z,986.20
2022-12-27T00:39:42.962Z,986.26
2022-12-27T00:40:42.887Z,986.32
2022-12-27T00:41:42.874Z,986.24
2022-12-27T00:42:42.866Z,986.35
2022-12-27T00:43:42.848Z,986.35
2022-12-27T00:44:42.841Z,986.40
2022-12-27T00:45:42.840Z,986.38
2022-12-27T00:46:42.816Z,986.43
2022-12-27T00:47:42.792Z,986.45
2022-12-27T00:48:42.787Z,986.40
2022-12-27T00:49:42.769Z,986.43
2022-12-27T00:50:42.763Z,986.43
2022-12-27T00:51:42.749Z,986.48
2022-12-27T00:52:42.729Z,986.54
2022-12-27T00:53:42.741Z,986.51
2022-12-27T00:54:42.722Z,986.57
2022-12-27T00:55:42.692Z,986.52
2022-12-27T00:56:42.673Z,986.55
2022-12-27T00:57:42.666Z,986.56
2022-12-27T00:58:42.663Z,986.59
2022-12-27T00:59:42.650Z,986.63
2022-12-27T01:00:42.698Z,986.65
2022-12-27T01:01:42.807Z,986.65
2022-12-27T01:02:42.607Z,986.67
2022-12-27T01:03:42.630Z,986.79
2022-12-27T01:04:42.571Z,986.78
2022-12-27T01:05:42.553Z,986.70
2022-12-27T01:06:42.546Z,986.75
2022-12-27T01:07:42.527Z,986.71
2022-12-27T01:08:42.530Z,986.80
2022-12-27T01:09:42.532Z,986.76
2022-12-27T01:10:42.495Z,986.78
2022-12-27T01:11:42.473Z,986.74
2022-12-27T01:12:42.464Z,986.73
2022-12-27T01:13:42.450Z,986.79
2022-12-27T01:14:42.440Z,986.78
2022-12-27T01:15:42.435Z,986.74
2022-12-27T01:16:42.455Z,986.83
2022-12-27T01:17:42.400Z,986.80
2022-12-27T01:18:42.392Z,986.88
2022-12-27T01:19:42.373Z,986.85
2022-12-27T01:20:42.364Z,986.92
2022-12-27T01:21:42.340Z,986.90
2022-12-27T01:22:42.330Z,986.89
2022-12-27T01:23:42.316Z,986.96
2022-12-27T01:24:42.305Z,986.93
2022-12-27T01:25:42.309Z,986.99
2022-12-27T01:26:42.272Z,986.93
2022-12-27T01:27:42.273Z,986.98
2022-12-27T01:28:42.255Z,987.01
2022-12-27T01:29:42.230Z,987.05
2022-12-27T01:30:42.572Z,987.04
2022-12-27T01:31:42.252Z,987.03
2022-12-27T01:32:42.201Z,987.07
2022-12-27T01:33:42.199Z,987.16
2022-12-27T01:34:42.194Z,987.18
2022-12-27T01:35:42.155Z,987.29
2022-12-27T01:36:42.144Z,987.23
2022-12-27T01:37:42.130Z,987.29
2022-12-27T01:38:42.114Z,987.28
2022-12-27T01:39:42.111Z,987.33
2022-12-27T01:40:42.095Z,987.26
2022-12-27T01:41:42.119Z,987.29
2022-12-27T01:42:42.070Z,987.35
2022-12-27T01:43:42.057Z,987.26
2022-12-27T01:44:42.036Z,987.27
2022-12-27T01:45:42.073Z,987.31
2022-12-27T01:46:42.012Z,987.34
2022-12-27T01:47:41.996Z,987.43
2022-12-27T01:48:41.987Z,987.43
2022-12-27T01:49:42.019Z,987.52
2022-12-27T01:50:41.960Z,987.50
2022-12-27T01:51:41.946Z,987.48
2022-12-27T01:52:41.936Z,987.54
2022-12-27T01:53:41.939Z,987.67
2022-12-27T01:54:41.904Z,987.62
2022-12-27T01:55:41.895Z,987.64
2022-12-27T01:56:41.881Z,987.66
2022-12-27T01:57:41.903Z,987.72
2022-12-27T01:58:41.857Z,987.63
2022-12-27T01:59:41.848Z,987.69
2022-12-27T02:00:41.824Z,987.75
2022-12-27T02:01:41.886Z,987.66
2022-12-27T02:02:41.951Z,987.73
2022-12-27T02:03:41.780Z,987.78
2022-12-27T02:04:41.766Z,987.68
2022-12-27T02:05:41.838Z,987.71
2022-12-27T02:06:41.748Z,987.74
2022-12-27T02:07:41.729Z,987.65
2022-12-27T02:08:41.718Z,987.71
2022-12-27T02:09:41.704Z,987.70
2022-12-27T02:10:41.695Z,987.72
2022-12-27T02:11:41.678Z,987.76
2022-12-27T02:12:41.671Z,987.76
2022-12-27T02:13:41.674Z,987.74
2022-12-27T02:14:41.636Z,987.75
2022-12-27T02:15:41.620Z,987.68
2022-12-27T02:16:41.671Z,987.72
2022-12-27T02:17:41.597Z,987.76
2022-12-27T02:18:41.583Z,987.77
2022-12-27T02:19:41.584Z,987.75
2022-12-27T02:20:41.557Z,987.78
2022-12-27T02:21:41.562Z,987.74
2022-12-27T02:22:41.535Z,987.78
2022-12-27T02:23:41.518Z,987.75
2022-12-27T02:24:41.520Z,987.82
2022-12-27T02:25:41.494Z,987.80
2022-12-27T02:26:41.480Z,987.92
2022-12-27T02:27:41.464Z,987.91
2022-12-27T02:28:41.453Z,987.94
2022-12-27T02:29:41.464Z,987.99
2022-12-27T02:30:41.482Z,988.00
2022-12-27T02:31:41.408Z,987.99
2022-12-27T02:32:41.402Z,988.00
2022-12-27T02:33:41.389Z,988.05
2022-12-27T02:34:41.376Z,988.09
2022-12-27T02:35:41.367Z,988.07
2022-12-27T02:36:41.356Z,988.00
2022-12-27T02:37:41.332Z,988.05
2022-12-27T02:38:41.315Z,988.05
2022-12-27T02:39:41.307Z,988.03
2022-12-27T02:40:41.290Z,987.98
2022-12-27T02:41:41.277Z,988.18
2022-12-27T02:42:41.276Z,988.15
2022-12-27T02:43:41.247Z,988.12
2022-12-27T02:44:41.235Z,988.12
2022-12-27T02:45:41.414Z,988.14
2022-12-27T02:46:41.272Z,988.13
2022-12-27T02:47:41.198Z,988.16
2022-12-27T02:48:41.184Z,988.19
2022-12-27T02:49:41.172Z,988.25
2022-12-27T02:50:41.162Z,988.26
2022-12-27T02:51:41.155Z,988.19
2022-12-27T02:52:41.132Z,988.22
2022-12-27T02:53:41.118Z,988.22
2022-12-27T02:54:41.108Z,988.17
2022-12-27T02:55:41.096Z,988.25
2022-12-27T02:56:41.081Z,988.16
2022-12-27T02:57:41.066Z,988.25
2022-12-27T02:58:41.064Z,988.27
2022-12-27T02:59:41.039Z,988.27
2022-12-27T03:00:41.020Z,988.23
2022-12-27T03:01:41.100Z,988.25
2022-12-27T03:02:41.161Z,988.27
2022-12-27T03:03:44.417Z,988.29
2022-12-27T03:04:40.970Z,988.22
2022-12-27T03:05:40.954Z,988.24
2022-12-27T03:06:40.943Z,988.21
2022-12-27T03:07:40.927Z,988.27
2022-12-27T03:08:40.916Z,988.30
2022-12-27T03:09:40.908Z,988.34
2022-12-27T03:10:40.894Z,988.29
2022-12-27T03:11:40.876Z,988.27
2022-12-27T03:12:40.864Z,988.26
2022-12-27T03:13:40.849Z,988.24
2022-12-27T03:14:40.841Z,988.23
2022-12-27T03:15:40.831Z,988.24
2022-12-27T03:16:40.812Z,988.27
2022-12-27T03:17:40.811Z,988.30
2022-12-27T03:18:40.780Z,988.27
2022-12-27T03:19:40.775Z,988.25
2022-12-27T03:20:40.748Z,988.30
2022-12-27T03:21:40.741Z,988.30
2022-12-27T03:22:40.723Z,988.26
2022-12-27T03:23:40.706Z,988.35
2022-12-27T03:24:40.694Z,988.32
2022-12-27T03:25:40.691Z,988.41
2022-12-27T03:26:40.674Z,988.38
2022-12-27T03:27:40.658Z,988.35
2022-12-27T03:28:40.644Z,988.37
2022-12-27T03:29:40.642Z,988.32
2022-12-27T03:30:40.720Z,988.37
2022-12-27T03:31:40.608Z,988.37
2022-12-27T03:32:40.595Z,988.34
2022-12-27T03:33:40.594Z,988.38
2022-12-27T03:34:40.561Z,988.39
2022-12-27T03:35:40.747Z,988.36
2022-12-27T03:36:40.543Z,988.35
2022-12-27T03:37:40.527Z,988.36
2022-12-27T03:38:40.512Z,988.41
2022-12-27T03:39:40.497Z,988.47
2022-12-27T03:40:40.483Z,988.38
2022-12-27T03:41:40.467Z,988.49
2022-12-27T03:42:40.464Z,988.51
2022-12-27T03:43:40.452Z,988.49
2022-12-27T03:44:40.431Z,988.49
2022-12-27T03:45:40.411Z,988.46
2022-12-27T03:46:40.438Z,988.42
2022-12-27T03:47:40.389Z,988.46
2022-12-27T03:48:40.384Z,988.51
2022-12-27T03:49:40.409Z,988.44
2022-12-27T03:50:40.357Z,988.56
2022-12-27T03:51:40.355Z,988.52
2022-12-27T03:52:40.316Z,988.47
2022-12-27T03:53:40.306Z,988.52
2022-12-27T03:54:40.307Z,988.55
2022-12-27T03:55:40.283Z,988.39
2022-12-27T03:56:40.268Z,988.49
2022-12-27T03:57:40.258Z,988.40
2022-12-27T03:58:40.246Z,988.47
2022-12-27T03:59:40.238Z,988.45
2022-12-27T04:00:40.229Z,988.51
2022-12-27T04:01:40.273Z,988.44
2022-12-27T04:02:40.387Z,988.57
2022-12-27T04:03:40.253Z,988.60
2022-12-27T04:04:40.171Z,988.61
2022-12-27T04:05:40.179Z,988.66
2022-12-27T04:06:40.135Z,988.66
2022-12-27T04:07:40.128Z,988.68
2022-12-27T04:08:40.109Z,988.69
2022-12-27T04:09:40.105Z,988.67
2022-12-27T04:10:40.097Z,988.61
2022-12-27T04:11:40.073Z,988.63
2022-12-27T04:12:40.070Z,988.67
2022-12-27T04:13:40.104Z,988.67
2022-12-27T04:14:40.047Z,988.64
2022-12-27T04:15:40.099Z,988.67
2022-12-27T04:16:40.013Z,988.63
2022-12-27T04:17:39.997Z,988.65
2022-12-27T04:18:39.985Z,988.63
2022-12-27T04:19:39.976Z,988.68
2022-12-27T04:20:39.959Z,988.64
2022-12-27T04:21:39.969Z,988.63
2022-12-27T04:22:39.928Z,988.67
2022-12-27T04:23:39.920Z,988.64
2022-12-27T04:24:39.904Z,988.64
2022-12-27T04:25:39.891Z,988.64
2022-12-27T04:26:39.875Z,988.61
2022-12-27T04:27:39.864Z,988.61
2022-12-27T04:28:39.855Z,988.68
2022-12-27T04:29:39.847Z,988.69
2022-12-27T04:30:39.837Z,988.69
2022-12-27T04:31:39.908Z,988.66
2022-12-27T04:32:39.802Z,988.65
2022-12-27T04:33:39.795Z,988.64
2022-12-27T04:34:39.777Z,988.59
2022-12-27T04:35:39.766Z,988.64
2022-12-27T04:36:39.755Z,988.63
2022-12-27T04:37:39.878Z,988.60
2022-12-27T04:38:39.721Z,988.60
2022-12-27T04:39:39.712Z,988.62
2022-12-27T04:40:39.705Z,988.66
2022-12-27T04:41:39.686Z,988.65
2022-12-27T04:42:39.674Z,988.69
2022-12-27T04:43:39.657Z,988.62
2022-12-27T04:44:39.653Z,988.65
2022-12-27T04:45:39.635Z,988.66
2022-12-27T04:46:39.656Z,988.64
2022-12-27T04:47:39.610Z,988.68
2022-12-27T04:48:39.590Z,988.71
2022-12-27T04:49:39.575Z,988.63
2022-12-27T04:50:39.563Z,988.60
2022-12-27T04:51:39.549Z,988.57
2022-12-27T04:52:39.538Z,988.60
2022-12-27T04:53:39.590Z,988.66
2022-12-27T04:54:39.512Z,988.65
2022-12-27T04:55:39.504Z,988.67
2022-12-27T04:56:39.489Z,988.65
2022-12-27T04:57:39.473Z,988.71
2022-12-27T04:58:39.462Z,988.72
2022-12-27T04:59:39.453Z,988.70
2022-12-27T05:00:39.438Z,988.80
2022-12-27T05:01:39.558Z,988.72
2022-12-27T05:02:39.561Z,988.77
2022-12-27T05:03:39.418Z,988.74
2022-12-27T05:04:39.373Z,988.76
2022-12-27T05:05:39.367Z,988.78
2022-12-27T05:06:39.362Z,988.79
2022-12-27T05:07:39.340Z,988.80
2022-12-27T05:08:39.349Z,988.85
2022-12-27T05:09:39.336Z,988.81
2022-12-27T05:10:39.299Z,988.91
2022-12-27T05:11:39.295Z,988.85
2022-12-27T05:12:39.278Z,988.77
2022-12-27T05:13:39.267Z,988.80
2022-12-27T05:14:39.243Z,988.84
2022-12-27T05:15:39.236Z,988.84
2022-12-27T05:16:39.217Z,988.87
2022-12-27T05:17:39.209Z,988.84
2022-12-27T05:18:39.196Z,988.85
2022-12-27T05:19:39.187Z,988.86
2022-12-27T05:20:39.167Z,988.85
2022-12-27T05:21:39.170Z,988.86
2022-12-27T05:22:39.148Z,988.95
2022-12-27T05:23:39.131Z,988.89
2022-12-27T05:24:39.122Z,988.88
2022-12-27T05:25:39.129Z,988.81
2022-12-27T05:26:39.084Z,988.93
2022-12-27T05:27:39.081Z,988.96
2022-12-27T05:28:39.058Z,988.84
2022-12-27T05:29:39.045Z,988.82
2022-12-27T05:30:39.048Z,988.83
2022-12-27T05:31:39.080Z,988.85
2022-12-27T05:32:39.005Z,988.79
2022-12-27T05:33:39.000Z,988.85
2022-12-27T05:34:38.981Z,988.92
2022-12-27T05:35:38.973Z,988.92
2022-12-27T05:36:38.959Z,988.91
2022-12-27T05:37:38.948Z,988.94
2022-12-27T05:38:38.936Z,988.95
2022-12-27T05:39:38.926Z,988.89
2022-12-27T05:40:38.907Z,988.98
2022-12-27T05:41:38.907Z,989.02
2022-12-27T05:42:38.876Z,988.91
2022-12-27T05:43:38.863Z,989.01
2022-12-27T05:44:38.851Z,989.04
2022-12-27T05:45:38.840Z,989.02
2022-12-27T05:46:38.889Z,989.07
2022-12-27T05:47:38.813Z,989.08
2022-12-27T05:48:38.799Z,989.17
2022-12-27T05:49:38.784Z,989.15
2022-12-27T05:50:38.766Z,989.17
2022-12-27T05:51:38.755Z,989.22
2022-12-27T05:52:41.182Z,989.19
2022-12-27T05:53:38.762Z,989.22
2022-12-27T05:54:38.729Z,989.19
2022-12-27T05:55:38.708Z,989.18
2022-12-27T05:56:38.688Z,989.23
2022-12-27T05:57:38.712Z,989.22
2022-12-27T05:58:38.663Z,989.20
2022-12-27T05:59:38.651Z,989.19
2022-12-27T06:00:38.638Z,989.21
2022-12-27T06:01:38.737Z,989.14
2022-12-27T06:02:38.816Z,989.26
2022-12-27T06:03:38.638Z,989.22
2022-12-27T06:04:38.592Z,989.22
2022-12-27T06:05:38.575Z,989.20
2022-12-27T06:06:38.557Z,989.23
2022-12-27T06:07:38.543Z,989.27
2022-12-27T06:08:38.534Z,989.23
2022-12-27T06:09:38.518Z,989.21
2022-12-27T06:10:38.501Z,989.19
2022-12-27T06:11:38.492Z,989.20
2022-12-27T06:12:38.474Z,989.21
2022-12-27T06:13:38.492Z,989.22
2022-12-27T06:14:38.455Z,989.25
2022-12-27T06:15:38.448Z,989.24
2022-12-27T06:16:38.463Z,989.25
2022-12-27T06:17:38.418Z,989.23
2022-12-27T06:18:38.396Z,989.26
2022-12-27T06:19:38.389Z,989.25
2022-12-27T06:20:38.374Z,989.31
2022-12-27T06:21:38.362Z,989.27
2022-12-27T06:22:38.350Z,989.31
2022-12-27T06:23:38.344Z,989.27
2022-12-27T06:24:38.321Z,989.28
2022-12-27T06:25:38.316Z,989.25
2022-12-27T06:26:38.296Z,989.26
2022-12-27T06:27:38.284Z,989.25
2022-12-27T06:28:38.263Z,989.26
2022-12-27T06:29:38.279Z,989.23
2022-12-27T06:30:38.242Z,989.24
2022-12-27T06:31:38.334Z,989.25
2022-12-27T06:32:38.210Z,989.20
2022-12-27T06:33:38.213Z,989.24
2022-12-27T06:34:38.203Z,989.23
2022-12-27T06:35:38.180Z,989.26
2022-12-27T06:36:38.166Z,989.28
2022-12-27T06:37:38.153Z,989.31
2022-12-27T06:38:38.139Z,989.27
2022-12-27T06:39:38.123Z,989.31
2022-12-27T06:40:38.111Z,989.33
2022-12-27T06:41:38.107Z,989.24
2022-12-27T06:42:38.087Z,989.24
2022-12-27T06:43:38.080Z,989.38
2022-12-27T06:44:38.059Z,989.30
2022-12-27T06:45:38.123Z,989.31
2022-12-27T06:46:38.037Z,989.32
2022-12-27T06:47:38.025Z,989.30
2022-12-27T06:48:38.007Z,989.35
2022-12-27T06:49:38.010Z,989.36
2022-12-27T06:50:37.980Z,989.41
2022-12-27T06:51:37.969Z,989.44
2022-12-27T06:52:37.959Z,989.38
2022-12-27T06:53:37.941Z,989.44
2022-12-27T06:54:37.933Z,989.41
2022-12-27T06:55:37.913Z,989.43
2022-12-27T06:56:37.899Z,989.44
2022-12-27T06:57:37.892Z,989.45
2022-12-27T06:58:37.876Z,989.44
2022-12-27T06:59:37.869Z,989.53
2022-12-27T07:00:37.867Z,989.49
2022-12-27T07:01:38.010Z,989.50
2022-12-27T07:02:37.930Z,989.47
2022-12-27T07:03:37.820Z,989.50
2022-12-27T07:04:37.808Z,989.51
2022-12-27T07:05:37.785Z,989.58
2022-12-27T07:06:37.773Z,989.54
2022-12-27T07:07:37.763Z,989.50
2022-12-27T07:08:37.742Z,989.53
2022-12-27T07:09:37.732Z,989.53
2022-12-27T07:10:37.718Z,989.47
2022-12-27T07:11:37.721Z,989.49
2022-12-27T07:12:37.700Z,989.52
2022-12-27T07:13:37.677Z,989.57
2022-12-27T07:14:37.668Z,989.54
2022-12-27T07:15:37.654Z,989.53
2022-12-27T07:16:37.744Z,989.61
2022-12-27T07:17:37.646Z,989.66
2022-12-27T07:18:37.608Z,989.66
2022-12-27T07:19:37.600Z,989.62
2022-12-27T07:20:37.581Z,989.68
2022-12-27T07:21:37.570Z,989.68
2022-12-27T07:22:37.559Z,989.68
2022-12-27T07:23:37.553Z,989.66
2022-12-27T07:24:37.528Z,989.71
2022-12-27T07:25:37.525Z,989.70
2022-12-27T07:26:37.504Z,989.72
2022-12-27T07:27:37.500Z,989.68
2022-12-27T07:28:37.474Z,989.65
2022-12-27T07:29:43.519Z,989.61
2022-12-27T07:30:38.482Z,989.68
2022-12-27T07:31:37.487Z,989.63
2022-12-27T07:32:37.432Z,989.66
2022-12-27T07:33:37.457Z,989.72
2022-12-27T07:34:37.397Z,989.74
2022-12-27T07:35:42.129Z,989.73
2022-12-27T07:36:38.399Z,989.69
2022-12-27T07:37:37.352Z,989.77
2022-12-27T07:38:37.350Z,989.73
2022-12-27T07:39:37.330Z,989.73
2022-12-27T07:40:37.316Z,989.80
2022-12-27T07:41:37.311Z,989.77
2022-12-27T07:42:37.302Z,989.78
2022-12-27T07:43:37.284Z,989.82
2022-12-27T07:44:37.271Z,989.79
2022-12-27T07:45:37.272Z,989.78
2022-12-27T07:46:37.242Z,989.80
2022-12-27T07:47:37.226Z,989.78
2022-12-27T07:48:37.212Z,989.80
2022-12-27T07:49:37.228Z,989.84
2022-12-27T07:50:37.210Z,989.81
2022-12-27T07:51:37.170Z,989.86
2022-12-27T07:52:37.159Z,989.80
2022-12-27T07:53:37.154Z,989.85
2022-12-27T07:54:37.137Z,989.86
2022-12-27T07:55:37.124Z,989.86
2022-12-27T07:56:37.105Z,989.87
2022-12-27T07:57:37.094Z,989.89
2022-12-27T07:58:37.084Z,989.84
2022-12-27T07:59:37.074Z,989.82
2022-12-27T08:00:37.059Z,989.84
2022-12-27T08:01:37.139Z,989.79
2022-12-27T08:02:37.086Z,989.82
2022-12-27T08:03:37.116Z,989.91
2022-12-27T08:04:37.017Z,989.94
2022-12-27T08:05:37.021Z,989.94
2022-12-27T08:06:36.978Z,989.88
2022-12-27T08:07:36.965Z,989.87
2022-12-27T08:08:36.974Z,989.84
2022-12-27T08:09:36.937Z,989.84
2022-12-27T08:10:36.932Z,989.92
2022-12-27T08:11:36.914Z,989.86
2022-12-27T08:12:36.904Z,989.82
2022-12-27T08:13:36.912Z,989.85
2022-12-27T08:14:36.867Z,989.80
2022-12-27T08:15:36.856Z,989.81
2022-12-27T08:16:36.878Z,989.83
2022-12-27T08:17:36.830Z,989.81
2022-12-27T08:18:36.816Z,989.84
2022-12-27T08:19:36.799Z,989.76
2022-12-27T08:20:36.804Z,989.75
2022-12-27T08:21:36.809Z,989.74
2022-12-27T08:22:36.770Z,989.77
2022-12-27T08:23:36.757Z,989.77
2022-12-27T08:24:36.738Z,989.81
2022-12-27T08:25:36.725Z,989.80
2022-12-27T08:26:36.713Z,989.80
2022-12-27T08:27:36.720Z,989.72
2022-12-27T08:28:36.693Z,989.71
2022-12-27T08:29:36.668Z,989.70
2022-12-27T08:30:36.725Z,989.69
2022-12-27T08:31:36.641Z,989.71
2022-12-27T08:32:36.635Z,989.71
2022-12-27T08:33:36.618Z,989.61
2022-12-27T08:34:36.606Z,989.63
2022-12-27T08:35:53.757Z,989.58
2022-12-27T08:36:54.794Z,989.61
2022-12-27T08:37:37.627Z,989.56
2022-12-27T08:38:36.571Z,989.63
2022-12-27T08:39:36.541Z,989.61
2022-12-27T08:40:36.535Z,989.56
2022-12-27T08:41:36.521Z,989.60
2022-12-27T08:42:36.505Z,989.59
2022-12-27T08:43:36.492Z,989.62
2022-12-27T08:44:36.479Z,989.59
2022-12-27T08:45:36.468Z,989.60
2022-12-27T08:46:36.528Z,989.65
2022-12-27T08:47:36.439Z,989.64
2022-12-27T08:48:36.453Z,989.65
2022-12-27T08:49:36.410Z,989.64
2022-12-27T08:50:36.400Z,989.66
2022-12-27T08:51:41.208Z,989.66
2022-12-27T08:52:36.370Z,989.66
2022-12-27T08:53:36.384Z,989.63
2022-12-27T08:54:36.360Z,989.73
2022-12-27T08:55:36.339Z,989.72
2022-12-27T08:56:36.337Z,989.70
2022-12-27T08:57:36.310Z,989.62
2022-12-27T08:58:36.297Z,989.60
2022-12-27T08:59:36.277Z,989.69
2022-12-27T09:00:36.266Z,989.66
2022-12-27T09:01:36.377Z,989.62
2022-12-27T09:02:36.311Z,989.64
2022-12-27T09:03:36.258Z,989.63
2022-12-27T09:04:36.221Z,989.63
2022-12-27T09:05:41.364Z,989.63
2022-12-27T09:06:36.198Z,989.69
2022-12-27T09:07:36.183Z,989.64
2022-12-27T09:08:36.170Z,989.73
2022-12-27T09:09:36.176Z,989.75
2022-12-27T09:10:36.151Z,989.76
2022-12-27T09:11:36.139Z,989.72
2022-12-27T09:12:36.116Z,989.72
2022-12-27T09:13:36.110Z,989.70
2022-12-27T09:14:36.085Z,989.63
2022-12-27T09:15:36.159Z,989.70
2022-12-27T09:16:36.060Z,989.71
2022-12-27T09:17:36.050Z,989.67
2022-12-27T09:18:36.039Z,989.74
2022-12-27T09:19:36.022Z,989.78
2022-12-27T09:20:36.025Z,989.74
2022-12-27T09:21:35.992Z,989.81
2022-12-27T09:22:36.003Z,989.77
2022-12-27T09:23:35.965Z,989.77
2022-12-27T09:24:35.949Z,989.77
2022-12-27T09:25:36.205Z,989.80
2022-12-27T09:26:35.923Z,989.73
2022-12-27T09:27:35.914Z,989.73
2022-12-27T09:28:35.953Z,989.79
2022-12-27T09:29:35.920Z,989.74
2022-12-27T09:30:35.870Z,989.83
2022-12-27T09:31:35.890Z,989.79
2022-12-27T09:32:35.849Z,989.76
2022-12-27T09:33:35.835Z,989.79
2022-12-27T09:34:35.850Z,989.73
2022-12-27T09:35:38.641Z,989.75
2022-12-27T09:36:35.781Z,989.74
2022-12-27T09:37:35.794Z,989.77
2022-12-27T09:38:35.762Z,989.80
2022-12-27T09:39:35.745Z,989.82
2022-12-27T09:40:35.738Z,989.82
2022-12-27T09:43:06.185Z,989.86
2022-12-27T09:43:36.719Z,989.93
2022-12-27T09:44:35.686Z,989.85
2022-12-27T09:45:35.690Z,989.83
2022-12-27T09:46:35.733Z,989.79
2022-12-27T09:47:35.645Z,989.80
2022-12-27T09:48:35.627Z,989.79
2022-12-27T09:49:35.611Z,989.75
2022-12-27T09:50:35.616Z,989.80
2022-12-27T09:51:35.593Z,989.83
2022-12-27T09:52:35.571Z,989.78
2022-12-27T09:53:35.586Z,989.75
2022-12-27T09:54:35.568Z,989.75
2022-12-27T09:55:35.572Z,989.76
2022-12-27T09:57:09.680Z,989.73
2022-12-27T09:57:36.563Z,989.79
2022-12-27T09:58:35.499Z,989.79
2022-12-27T09:59:35.496Z,989.78
2022-12-27T10:00:37.214Z,989.78
2022-12-27T10:01:35.616Z,989.80
2022-12-27T10:02:35.548Z,989.77
2022-12-27T10:03:35.425Z,989.75
2022-12-27T10:05:09.772Z,989.73
2022-12-27T10:05:36.525Z,989.67
2022-12-27T10:06:35.391Z,989.78
2022-12-27T10:07:35.382Z,989.77
2022-12-27T10:08:35.365Z,989.67
2022-12-27T10:09:35.350Z,989.70
2022-12-27T10:10:35.346Z,989.65
2022-12-27T10:11:35.322Z,989.67
2022-12-27T10:12:35.315Z,989.63
2022-12-27T10:13:35.315Z,989.70
2022-12-27T10:14:35.279Z,989.66
2022-12-27T10:15:35.349Z,989.63
2022-12-27T10:16:35.260Z,989.64
2022-12-27T10:17:35.238Z,989.64
2022-12-27T10:18:35.224Z,989.62
2022-12-27T10:19:35.214Z,989.56
2022-12-27T10:20:35.199Z,989.61
2022-12-27T10:21:35.187Z,989.60
2022-12-27T10:22:35.183Z,989.56
2022-12-27T10:23:35.164Z,989.51
2022-12-27T10:24:35.152Z,989.53
2022-12-27T10:25:35.199Z,989.58
2022-12-27T10:26:35.132Z,989.46
2022-12-27T10:27:35.118Z,989.57
2022-12-27T10:28:35.095Z,989.50
2022-12-27T10:29:35.105Z,989.49
2022-12-27T10:30:35.070Z,989.49
2022-12-27T10:31:35.118Z,989.49
2022-12-27T10:32:35.039Z,989.44
2022-12-27T10:33:35.033Z,989.46
2022-12-27T10:34:35.020Z,989.48
2022-12-27T10:35:35.002Z,989.56
2022-12-27T10:36:34.993Z,989.55
2022-12-27T10:37:34.974Z,989.46
2022-12-27T10:38:34.961Z,989.48
2022-12-27T10:39:34.947Z,989.51
2022-12-27T10:40:34.944Z,989.48
2022-12-27T10:41:34.919Z,989.49
2022-12-27T10:42:34.913Z,989.47
2022-12-27T10:43:34.892Z,989.44
2022-12-27T10:44:34.881Z,989.43
2022-12-27T10:45:34.905Z,989.41
2022-12-27T10:46:34.908Z,989.29
2022-12-27T10:47:34.845Z,989.44
2022-12-27T10:49:02.684Z,989.45
2022-12-27T10:49:35.841Z,989.49
2022-12-27T10:50:34.807Z,989.44
2022-12-27T10:51:34.786Z,989.41
2022-12-27T10:52:34.781Z,989.39
2022-12-27T10:53:34.775Z,989.39
2022-12-27T10:54:34.750Z,989.32
2022-12-27T10:55:34.730Z,989.38
2022-12-27T10:56:34.731Z,989.37
2022-12-27T10:57:34.722Z,989.37
2022-12-27T10:58:34.695Z,989.42
2022-12-27T10:59:34.681Z,989.39
2022-12-27T11:00:34.721Z,989.39
2022-12-27T11:01:34.842Z,989.38
2022-12-27T11:02:34.785Z,989.36
2022-12-27T11:03:34.632Z,989.30
2022-12-27T11:04:34.626Z,989.36
2022-12-27T11:05:34.606Z,989.39
2022-12-27T11:06:34.591Z,989.37
2022-12-27T11:07:34.595Z,989.30
2022-12-27T11:08:34.585Z,989.36
2022-12-27T11:09:34.554Z,989.36
2022-12-27T11:10:34.545Z,989.37
2022-12-27T11:11:34.529Z,989.39
2022-12-27T11:12:34.506Z,989.39
2022-12-27T11:13:34.499Z,989.48
2022-12-27T11:14:34.482Z,989.45
2022-12-27T11:15:34.470Z,989.40
2022-12-27T11:16:34.531Z,989.30
2022-12-27T11:17:34.535Z,989.31
2022-12-27T11:18:34.432Z,989.30
2022-12-27T11:19:34.419Z,989.30
2022-12-27T11:20:34.413Z,989.28
2022-12-27T11:21:34.391Z,989.27
2022-12-27T11:22:34.380Z,989.28
2022-12-27T11:23:34.406Z,989.22
2022-12-27T11:24:34.354Z,989.26
2022-12-27T11:25:34.338Z,989.22
2022-12-27T11:26:34.326Z,989.25
2022-12-27T11:27:34.311Z,989.23
2022-12-27T11:28:34.302Z,989.21
2022-12-27T11:29:34.275Z,989.19
2022-12-27T11:30:34.267Z,989.24
2022-12-27T11:31:34.295Z,989.18
2022-12-27T11:32:34.244Z,989.15
2022-12-27T11:33:34.388Z,989.12
2022-12-27T11:34:34.263Z,989.10
2022-12-27T11:35:34.216Z,989.09
2022-12-27T11:36:34.230Z,989.11
2022-12-27T11:37:34.211Z,989.13
2022-12-27T11:38:34.199Z,989.10
2022-12-27T11:39:34.202Z,989.05
2022-12-27T11:40:34.175Z,989.07
2022-12-27T11:41:34.226Z,989.11
2022-12-27T11:42:34.149Z,989.05
2022-12-27T11:43:34.148Z,988.96
2022-12-27T11:44:34.158Z,988.92
2022-12-27T11:45:34.121Z,988.87
2022-12-27T11:46:34.213Z,988.94
2022-12-27T11:47:34.104Z,988.97
2022-12-27T11:48:34.198Z,988.85
2022-12-27T11:49:34.098Z,988.81
2022-12-27T11:50:34.094Z,988.83
2022-12-27T11:51:34.028Z,988.97
2022-12-27T11:52:34.027Z,988.87
2022-12-27T11:53:34.010Z,988.84
2022-12-27T11:54:34.000Z,988.86
2022-12-27T11:55:33.989Z,988.91
2022-12-27T11:56:33.981Z,988.76
2022-12-27T11:57:33.939Z,988.72
2022-12-27T11:58:34.002Z,988.73
2022-12-27T11:59:33.967Z,988.63
2022-12-27T12:00:33.875Z,988.59
2022-12-27T12:01:34.003Z,988.68
2022-12-27T12:02:33.963Z,988.54
2022-12-27T12:03:33.905Z,988.63
2022-12-27T12:04:33.884Z,988.57
2022-12-27T12:05:33.874Z,988.64
2022-12-27T12:06:34.737Z,988.58
2022-12-27T12:07:33.815Z,988.56
2022-12-27T12:08:33.823Z,988.61
2022-12-27T12:09:33.798Z,988.62
2022-12-27T12:10:33.789Z,988.59
2022-12-27T12:11:33.767Z,988.63
2022-12-27T12:12:33.716Z,988.59
2022-12-27T12:13:33.696Z,988.61
2022-12-27T12:14:33.680Z,988.60
2022-12-27T12:15:33.675Z,988.64
2022-12-27T12:16:33.677Z,988.67
2022-12-27T12:17:36.055Z,988.61
2022-12-27T12:18:33.628Z,988.67
2022-12-27T12:19:33.861Z,988.61
2022-12-27T12:20:33.614Z,988.65
2022-12-27T12:21:33.627Z,988.56
2022-12-27T12:22:33.573Z,988.44
2022-12-27T12:23:33.559Z,988.43
2022-12-27T12:24:33.549Z,988.44
2022-12-27T12:25:33.537Z,988.48
2022-12-27T12:26:33.597Z,988.40
2022-12-27T12:27:33.508Z,988.44
2022-12-27T12:28:58.208Z,988.42
2022-12-27T12:29:34.510Z,988.53